Clarksville, Iowa
Current Conditions -  °F | °C
As of 7:35 AM on Saturday 20 Dec 2014 (Local Time) from KCCY Reporting Station
Haze Haze  
Wind Chill: 21°   Ceiling: 300
Heat Index: 28°   Visibility: 0.75mi
Dew Point: 28°   Wind: 7mph
Humidity: 100%   Direction: 140°SE
Pressure: 30.18"   Gusts: NA
Location:  42.78°N, 92.67°W
Report Text: KCCY 201335Z AUTO 14006KT 3/4SM BR OVC003 M02/M02 A3018 RMK AO2
Loading
Personal Weather Stations






























Interactive Weather Map New forecast layout! Learn more

10-Day Weather Forecast

Advertisements
Track Severe Weather on mobile